createdAt,value
2019-05-19T00:01:40.388Z,14.53
2019-05-19T00:04:08.987Z,9.48
2019-05-19T00:06:37.619Z,6.65
2019-05-19T00:09:06.651Z,6.97
2019-05-19T00:11:35.184Z,6.80
2019-05-19T00:14:03.808Z,6.47
2019-05-19T00:16:32.608Z,8.38
2019-05-19T00:19:01.266Z,7.87
2019-05-19T00:21:29.909Z,10.20
2019-05-19T00:23:59.875Z,7.37
2019-05-19T00:26:28.581Z,6.80
2019-05-19T00:28:57.140Z,7.92
2019-05-19T00:31:25.782Z,10.63
2019-05-19T00:33:54.384Z,6.37
2019-05-19T00:36:22.969Z,9.73
2019-05-19T00:38:51.534Z,7.53
2019-05-19T00:41:20.197Z,6.05
2019-05-19T00:43:49.108Z,9.20
2019-05-19T00:46:17.659Z,7.53
2019-05-19T00:48:46.436Z,8.10
2019-05-19T00:51:15.359Z,8.08
2019-05-19T00:53:43.915Z,9.55
2019-05-19T00:56:12.988Z,15.70
2019-05-19T00:58:42.028Z,11.88
2019-05-19T01:01:10.724Z,7.83
2019-05-19T01:03:39.326Z,7.05
2019-05-19T01:06:08.043Z,8.30
2019-05-19T01:08:36.675Z,10.82
2019-05-19T01:11:05.349Z,9.98
2019-05-19T01:13:33.997Z,9.13
2019-05-19T01:16:02.640Z,13.93
2019-05-19T01:18:31.239Z,9.98
2019-05-19T01:21:00.079Z,14.28
2019-05-19T01:23:28.762Z,9.10
2019-05-19T01:25:57.439Z,10.28
2019-05-19T01:28:26.078Z,8.95
2019-05-19T01:30:54.743Z,12.10
2019-05-19T01:33:23.513Z,10.50
2019-05-19T01:35:52.176Z,8.50
2019-05-19T01:38:20.803Z,9.50
2019-05-19T01:40:49.448Z,8.48
2019-05-19T01:43:18.023Z,11.73
2019-05-19T01:45:46.650Z,8.38
2019-05-19T01:48:15.264Z,9.33
2019-05-19T01:50:43.958Z,8.88
2019-05-19T01:53:12.520Z,9.73
2019-05-19T01:55:41.046Z,9.65
2019-05-19T01:58:09.744Z,10.50
2019-05-19T02:00:38.496Z,7.92
2019-05-19T02:03:07.171Z,7.45
2019-05-19T02:05:35.811Z,8.30
2019-05-19T02:08:04.483Z,10.43
2019-05-19T02:10:33.151Z,8.23
2019-05-19T02:13:05.038Z,7.12
2019-05-19T02:15:32.085Z,8.83
2019-05-19T02:18:00.771Z,11.95
2019-05-19T02:20:33.104Z,9.68
2019-05-19T02:22:59.771Z,11.73
2019-05-19T02:25:28.517Z,12.25
2019-05-19T02:27:57.086Z,8.43
2019-05-19T02:30:26.260Z,10.13
2019-05-19T02:32:54.837Z,8.68
2019-05-19T02:35:23.592Z,7.85
2019-05-19T02:37:52.203Z,7.17
2019-05-19T02:40:21.006Z,10.50
2019-05-19T02:42:51.380Z,11.33
2019-05-19T02:45:20.183Z,5.60
2019-05-19T02:47:50.159Z,6.20
2019-05-19T02:50:18.800Z,7.15
2019-05-19T02:52:50.256Z,12.80
2019-05-19T02:55:20.611Z,15.38
2019-05-19T02:57:51.015Z,8.90
2019-05-19T03:00:22.634Z,8.38
2019-05-19T03:02:51.239Z,12.58
2019-05-19T03:05:19.763Z,10.60
2019-05-19T03:07:48.341Z,13.62
2019-05-19T03:10:16.987Z,12.40
2019-05-19T03:12:45.641Z,10.40
2019-05-19T03:15:14.342Z,13.53
2019-05-19T03:17:42.906Z,10.48
2019-05-19T03:20:11.558Z,13.62
2019-05-19T03:22:40.190Z,9.98
2019-05-19T03:25:08.757Z,13.30
2019-05-19T03:27:37.335Z,12.45
2019-05-19T03:30:27.450Z,9.30
2019-05-19T03:33:04.854Z,8.45
2019-05-19T03:35:33.372Z,7.35
2019-05-19T03:38:01.937Z,9.88
2019-05-19T03:40:30.504Z,10.80
2019-05-19T03:42:59.184Z,7.45
2019-05-19T03:45:27.812Z,9.50
2019-05-19T03:47:56.438Z,7.90
2019-05-19T03:50:25.151Z,7.53
2019-05-19T03:52:53.848Z,8.28
2019-05-19T03:55:22.473Z,5.95
2019-05-19T03:57:51.075Z,8.30
2019-05-19T04:00:19.800Z,10.72
2019-05-19T04:02:48.367Z,6.10
2019-05-19T04:05:17.140Z,4.97
2019-05-19T04:07:45.775Z,5.58
2019-05-19T04:10:15.212Z,5.42
2019-05-19T04:12:43.923Z,8.50
2019-05-19T04:15:13.424Z,4.40
2019-05-19T04:17:41.985Z,4.37
2019-05-19T04:20:10.679Z,5.33
2019-05-19T04:22:39.353Z,8.98
2019-05-19T04:25:08.059Z,4.95
2019-05-19T04:27:36.822Z,2.77
2019-05-19T04:30:07.748Z,4.55
2019-05-19T04:32:36.311Z,5.45
2019-05-19T04:35:06.380Z,4.60
2019-05-19T04:37:35.064Z,3.05
2019-05-19T04:40:04.690Z,3.20
2019-05-19T04:42:33.281Z,4.35
2019-05-19T04:45:01.911Z,3.50
2019-05-19T04:47:30.469Z,5.85
2019-05-19T04:49:58.994Z,6.05
2019-05-19T04:52:27.567Z,5.80
2019-05-19T04:54:56.251Z,6.35
2019-05-19T04:57:24.887Z,4.97
2019-05-19T04:59:53.461Z,4.45
2019-05-19T05:02:22.090Z,3.87
2019-05-19T05:04:50.763Z,5.15
2019-05-19T05:07:19.325Z,2.95
2019-05-19T05:09:47.960Z,3.37
2019-05-19T05:12:16.672Z,2.08
2019-05-19T05:14:45.225Z,4.22
2019-05-19T05:17:13.787Z,3.50
2019-05-19T05:19:42.459Z,2.85
2019-05-19T05:22:21.700Z,3.60
2019-05-19T05:24:41.319Z,4.37
2019-05-19T05:27:10.120Z,2.70
2019-05-19T05:29:38.754Z,5.95
2019-05-19T05:32:07.318Z,4.83
2019-05-19T05:34:35.945Z,3.12
2019-05-19T05:37:04.579Z,4.70
2019-05-19T05:39:33.238Z,3.22
2019-05-19T05:42:01.848Z,9.53
2019-05-19T05:44:30.480Z,2.70
2019-05-19T05:46:59.108Z,4.17
2019-05-19T05:49:27.653Z,5.40
2019-05-19T05:51:56.275Z,6.60
2019-05-19T05:54:25.090Z,3.35
2019-05-19T05:56:53.722Z,6.62
2019-05-19T05:59:22.294Z,4.65
2019-05-19T06:01:50.799Z,5.65
2019-05-19T06:04:19.470Z,7.45
2019-05-19T06:06:48.038Z,7.58
2019-05-19T06:09:16.612Z,5.85
2019-05-19T06:11:45.394Z,3.05
2019-05-19T06:14:14.020Z,5.92
2019-05-19T06:16:42.583Z,10.25
2019-05-19T06:19:11.244Z,6.80
2019-05-19T06:21:39.798Z,5.58
2019-05-19T06:24:08.286Z,6.08
2019-05-19T06:26:36.910Z,4.33
2019-05-19T06:29:05.645Z,4.08
2019-05-19T06:31:34.205Z,5.15
2019-05-19T06:34:02.733Z,7.05
2019-05-19T06:36:31.365Z,4.40
2019-05-19T06:39:00.153Z,4.17
2019-05-19T06:41:28.861Z,3.85
2019-05-19T06:43:57.423Z,4.42
2019-05-19T06:46:26.085Z,10.58
2019-05-19T06:48:54.751Z,3.90
2019-05-19T06:51:23.316Z,5.92
2019-05-19T06:53:51.886Z,4.40
2019-05-19T06:56:20.491Z,6.08
2019-05-19T06:58:49.122Z,6.70
2019-05-19T07:01:17.683Z,4.62
2019-05-19T07:03:46.503Z,3.65
2019-05-19T07:06:15.066Z,4.60
2019-05-19T07:08:43.694Z,5.70
2019-05-19T07:11:12.362Z,4.75
2019-05-19T07:13:41.045Z,7.60
2019-05-19T07:16:09.569Z,3.35
2019-05-19T07:18:38.235Z,3.45
2019-05-19T07:21:06.806Z,3.67
2019-05-19T07:23:35.296Z,3.75
2019-05-19T07:26:03.986Z,4.22
2019-05-19T07:28:32.623Z,4.55
2019-05-19T07:31:01.254Z,6.67
2019-05-19T07:33:30.587Z,2.75
2019-05-19T07:35:59.254Z,4.53
2019-05-19T07:38:27.895Z,3.20
2019-05-19T07:40:56.557Z,3.15
2019-05-19T07:43:25.188Z,4.85
2019-05-19T07:45:53.752Z,5.97
2019-05-19T07:48:22.415Z,2.83
2019-05-19T07:50:51.043Z,2.20
2019-05-19T07:53:19.680Z,5.67
2019-05-19T07:55:48.287Z,3.70
2019-05-19T07:58:16.787Z,2.60
2019-05-19T08:00:45.408Z,2.20
2019-05-19T08:03:14.074Z,2.22
2019-05-19T08:05:42.624Z,3.02
2019-05-19T08:08:11.199Z,2.40
2019-05-19T08:10:39.875Z,3.67
2019-05-19T08:13:08.588Z,2.75
2019-05-19T08:15:37.084Z,3.60
2019-05-19T08:18:05.758Z,5.72
2019-05-19T08:20:34.496Z,7.20
2019-05-19T08:23:03.087Z,2.17
2019-05-19T08:25:31.739Z,4.42
2019-05-19T08:28:08.349Z,5.20
2019-05-19T08:30:30.765Z,4.53
2019-05-19T08:32:59.303Z,2.40
2019-05-19T08:35:28.026Z,2.52
2019-05-19T08:37:56.789Z,4.05
2019-05-19T08:40:25.387Z,2.27
2019-05-19T08:42:53.880Z,3.67
2019-05-19T08:45:22.501Z,2.45
2019-05-19T08:47:51.169Z,5.00
2019-05-19T08:50:19.803Z,2.37
2019-05-19T08:52:48.291Z,5.78
2019-05-19T08:55:17.049Z,4.08
2019-05-19T08:57:45.584Z,4.53
2019-05-19T09:00:14.442Z,2.90
2019-05-19T09:02:43.112Z,3.58
2019-05-19T09:05:12.242Z,8.48
2019-05-19T09:07:40.727Z,3.72
2019-05-19T09:10:09.771Z,4.55
2019-05-19T09:12:38.831Z,6.95
2019-05-19T09:15:08.068Z,5.62
2019-05-19T09:17:36.606Z,4.47
2019-05-19T09:20:06.231Z,5.78
2019-05-19T09:22:34.868Z,4.75
2019-05-19T09:25:04.539Z,6.40
2019-05-19T09:27:33.080Z,6.53
2019-05-19T09:30:01.767Z,13.18
2019-05-19T09:32:30.452Z,3.58
2019-05-19T09:34:58.951Z,4.25
2019-05-19T09:37:27.509Z,3.42
2019-05-19T09:39:56.171Z,4.72
2019-05-19T09:42:24.810Z,7.72
2019-05-19T09:44:53.390Z,3.42
2019-05-19T09:47:21.994Z,2.20
2019-05-19T09:49:50.648Z,2.62
2019-05-19T09:52:19.331Z,2.90
2019-05-19T09:54:47.931Z,3.22
2019-05-19T09:57:16.565Z,1.30
2019-05-19T09:59:45.199Z,4.47
2019-05-19T10:02:13.873Z,2.05
2019-05-19T10:04:42.424Z,3.98
2019-05-19T10:07:11.132Z,1.50
2019-05-19T10:09:58.189Z,2.35
2019-05-19T10:12:26.907Z,3.20
2019-05-19T10:14:55.524Z,2.05
2019-05-19T10:17:24.185Z,2.90
2019-05-19T10:19:52.788Z,3.20
2019-05-19T10:22:21.371Z,6.20
2019-05-19T10:25:10.254Z,2.08
2019-05-19T10:27:21.742Z,3.37
2019-05-19T10:29:50.410Z,3.17
2019-05-19T10:32:19.018Z,2.83
2019-05-19T10:34:47.662Z,3.08
2019-05-19T10:37:16.296Z,3.30
2019-05-19T10:39:44.812Z,2.00
2019-05-19T10:42:13.495Z,4.85
2019-05-19T10:44:42.133Z,1.07
2019-05-19T10:47:10.781Z,2.87
2019-05-19T10:49:39.399Z,2.58
2019-05-19T10:52:07.953Z,2.10
2019-05-19T10:54:36.560Z,1.75
2019-05-19T10:57:05.210Z,2.77
2019-05-19T10:59:33.950Z,5.33
2019-05-19T11:02:02.583Z,1.75
2019-05-19T11:04:31.081Z,2.37
2019-05-19T11:06:59.625Z,3.05
2019-05-19T11:09:28.262Z,2.08
2019-05-19T11:11:56.895Z,1.02
2019-05-19T11:14:25.464Z,4.70
2019-05-19T11:16:54.267Z,2.85
2019-05-19T11:19:22.931Z,2.67
2019-05-19T11:21:51.560Z,1.35
2019-05-19T11:24:20.047Z,2.00
2019-05-19T11:26:48.713Z,1.15
2019-05-19T11:29:17.338Z,4.42
2019-05-19T11:31:45.968Z,2.10
2019-05-19T11:34:14.738Z,3.02
2019-05-19T11:36:43.370Z,1.72
2019-05-19T11:39:11.867Z,5.78
2019-05-19T11:41:40.387Z,0.85
2019-05-19T11:44:09.036Z,1.22
2019-05-19T11:46:37.649Z,1.07
2019-05-19T11:49:06.253Z,2.25
2019-05-19T11:51:34.740Z,1.60
2019-05-19T11:54:03.426Z,0.70
2019-05-19T11:56:32.127Z,2.22
2019-05-19T11:59:00.656Z,3.40
2019-05-19T12:01:29.270Z,0.65
2019-05-19T12:03:57.942Z,4.47
2019-05-19T12:06:38.951Z,1.15
2019-05-19T12:08:56.890Z,1.10
2019-05-19T12:11:25.422Z,1.50
2019-05-19T12:13:54.069Z,0.65
2019-05-19T12:16:22.681Z,2.15
2019-05-19T12:18:51.370Z,1.15
2019-05-19T12:21:20.002Z,3.50
2019-05-19T12:23:48.499Z,2.05
2019-05-19T12:26:23.119Z,3.05
2019-05-19T12:28:47.376Z,0.85
2019-05-19T12:31:16.006Z,0.50
2019-05-19T12:33:51.811Z,1.72
2019-05-19T12:36:15.115Z,1.10
2019-05-19T12:38:43.756Z,2.35
2019-05-19T12:41:12.499Z,3.50
2019-05-19T12:43:41.078Z,2.15
2019-05-19T12:46:16.406Z,1.95
2019-05-19T12:48:40.173Z,0.85
2019-05-19T12:51:08.788Z,2.77
2019-05-19T12:53:37.388Z,1.00
2019-05-19T12:56:06.012Z,1.30
2019-05-19T12:58:34.572Z,1.27
2019-05-19T13:01:03.175Z,0.95
2019-05-19T13:03:31.807Z,2.52
2019-05-19T13:06:03.187Z,6.17
2019-05-19T13:08:31.719Z,1.30
2019-05-19T13:11:00.282Z,6.28
2019-05-19T13:13:28.906Z,1.65
2019-05-19T13:15:57.591Z,2.35
2019-05-19T13:18:26.152Z,3.35
2019-05-19T13:20:54.641Z,2.85
2019-05-19T13:23:23.381Z,1.35
2019-05-19T13:25:52.009Z,3.90
2019-05-19T13:28:20.497Z,3.33
2019-05-19T13:30:49.023Z,2.42
2019-05-19T13:33:17.662Z,4.30
2019-05-19T13:35:46.159Z,2.72
2019-05-19T13:38:14.859Z,0.80
2019-05-19T13:40:43.641Z,2.15
2019-05-19T13:43:12.122Z,4.12
2019-05-19T13:45:40.732Z,2.37
2019-05-19T13:48:09.356Z,1.30
2019-05-19T13:50:37.986Z,1.75
2019-05-19T13:53:06.650Z,2.15
2019-05-19T13:55:35.145Z,2.60
2019-05-19T13:58:03.791Z,2.80
2019-05-19T14:00:32.563Z,1.62
2019-05-19T14:03:01.063Z,1.87
2019-05-19T14:05:29.556Z,4.72
2019-05-19T14:07:58.289Z,2.60
2019-05-19T14:10:26.939Z,1.62
2019-05-19T14:12:55.430Z,2.05
2019-05-19T14:15:24.102Z,2.45
2019-05-19T14:17:52.675Z,4.12
2019-05-19T14:20:21.154Z,2.30
2019-05-19T14:22:49.822Z,1.35
2019-05-19T14:25:18.462Z,2.35
2019-05-19T14:27:46.947Z,1.42
2019-05-19T14:30:16.812Z,2.17
2019-05-19T14:32:45.460Z,4.85
2019-05-19T14:35:14.094Z,1.40
2019-05-19T14:37:42.619Z,2.85
2019-05-19T14:40:11.548Z,5.28
2019-05-19T14:42:47.800Z,3.10
2019-05-19T14:45:16.967Z,2.37
2019-05-19T14:47:45.627Z,1.60
2019-05-19T14:50:14.564Z,4.03
2019-05-19T14:52:43.308Z,7.25
2019-05-19T14:55:11.941Z,2.27
2019-05-19T14:57:45.078Z,5.17
2019-05-19T15:00:11.966Z,9.98
2019-05-19T15:02:40.592Z,7.67
2019-05-19T15:05:09.520Z,5.60
2019-05-19T15:07:38.048Z,4.15
2019-05-19T15:10:07.289Z,10.68
2019-05-19T15:12:35.923Z,3.75
2019-05-19T15:15:08.642Z,5.72
2019-05-19T15:17:37.142Z,3.85
2019-05-19T15:20:07.285Z,4.78
2019-05-19T15:22:35.965Z,1.87
2019-05-19T15:25:05.105Z,2.08
2019-05-19T15:27:33.596Z,6.62
2019-05-19T15:30:12.246Z,2.30
2019-05-19T15:32:32.488Z,2.60
2019-05-19T15:35:01.159Z,4.08
2019-05-19T15:37:29.815Z,2.90
2019-05-19T15:39:58.448Z,2.75
2019-05-19T15:42:27.044Z,2.40
2019-05-19T15:44:55.579Z,3.42
2019-05-19T15:47:24.328Z,1.37
2019-05-19T15:49:52.948Z,2.15
2019-05-19T15:52:21.554Z,1.82
2019-05-19T15:54:50.142Z,2.80
2019-05-19T15:57:18.772Z,3.05
2019-05-19T15:59:47.671Z,4.97
2019-05-19T16:02:16.292Z,3.33
2019-05-19T16:04:44.799Z,6.15
2019-05-19T16:07:13.470Z,2.65
2019-05-19T16:09:42.112Z,5.58
2019-05-19T16:12:10.620Z,2.52
2019-05-19T16:14:39.295Z,2.35
2019-05-19T16:17:07.891Z,5.22
2019-05-19T16:19:36.450Z,6.40
2019-05-19T16:22:05.324Z,1.70
2019-05-19T16:24:33.956Z,1.92
2019-05-19T16:27:02.596Z,4.25
2019-05-19T16:29:31.147Z,4.17
2019-05-19T16:31:59.705Z,4.95
2019-05-19T16:34:28.454Z,1.55
2019-05-19T16:36:57.004Z,3.30
2019-05-19T16:39:25.500Z,6.55
2019-05-19T16:41:54.143Z,2.75
2019-05-19T16:44:22.873Z,5.62
2019-05-19T16:46:51.387Z,4.58
2019-05-19T16:49:19.986Z,6.42
2019-05-19T16:51:48.722Z,4.67
2019-05-19T16:54:18.925Z,5.30
2019-05-19T16:56:47.554Z,7.80
2019-05-19T16:59:16.245Z,4.22
2019-05-19T17:01:44.804Z,7.03
2019-05-19T17:04:13.307Z,5.97
2019-05-19T17:06:42.064Z,6.08
2019-05-19T17:09:10.702Z,5.10
2019-05-19T17:11:39.190Z,4.08
2019-05-19T17:14:07.792Z,7.20
2019-05-19T17:16:36.422Z,8.10
2019-05-19T17:19:05.056Z,11.28
2019-05-19T17:21:33.718Z,5.92
2019-05-19T17:24:02.234Z,10.15
2019-05-19T17:26:30.863Z,9.05
2019-05-19T17:31:30.707Z,6.33
2019-05-19T17:33:59.272Z,6.67
2019-05-19T17:36:27.842Z,9.83
2019-05-19T17:38:56.434Z,2.60
2019-05-19T17:41:24.989Z,5.28
2019-05-19T17:43:53.631Z,7.20
2019-05-19T17:46:22.292Z,3.45
2019-05-19T17:48:50.781Z,5.58
2019-05-19T17:51:19.414Z,4.53
2019-05-19T17:53:48.247Z,6.40
2019-05-19T17:56:16.945Z,5.28
2019-05-19T17:58:47.042Z,6.62
2019-05-19T18:01:15.685Z,7.55
2019-05-19T18:03:45.043Z,4.03
2019-05-19T18:06:13.690Z,4.87
2019-05-19T18:08:42.228Z,16.82
2019-05-19T18:11:10.860Z,7.80
2019-05-19T18:13:39.357Z,6.28
2019-05-19T18:16:07.952Z,4.75
2019-05-19T18:18:36.586Z,6.53
2019-05-19T18:21:05.284Z,3.58
2019-05-19T18:23:33.881Z,3.20
2019-05-19T18:26:02.503Z,7.35
2019-05-19T18:28:31.171Z,5.00
2019-05-19T18:30:59.842Z,9.25
2019-05-19T18:33:28.342Z,5.42
2019-05-19T18:35:56.842Z,5.97
2019-05-19T18:38:25.514Z,8.35
2019-05-19T18:40:54.146Z,4.72
2019-05-19T18:43:22.722Z,10.08
2019-05-19T18:45:51.361Z,11.20
2019-05-19T18:48:23.160Z,5.42
2019-05-19T18:50:50.308Z,5.08
2019-05-19T18:53:18.939Z,3.83
2019-05-19T18:55:47.571Z,9.00
2019-05-19T18:58:16.104Z,4.15
2019-05-19T19:00:44.732Z,4.08
2019-05-19T19:03:13.377Z,3.83
2019-05-19T19:05:42.077Z,8.23
2019-05-19T19:08:10.644Z,8.08
2019-05-19T19:10:39.274Z,3.92
2019-05-19T19:13:07.874Z,5.62
2019-05-19T19:15:36.504Z,6.53
2019-05-19T19:18:05.200Z,4.60
2019-05-19T19:20:34.376Z,2.35
2019-05-19T19:23:03.165Z,6.35
2019-05-19T19:25:31.792Z,2.92
2019-05-19T19:28:00.462Z,2.33
2019-05-19T19:30:29.105Z,5.53
2019-05-19T19:32:57.729Z,4.15
2019-05-19T19:35:26.413Z,4.17
2019-05-19T19:37:55.054Z,6.50
2019-05-19T19:40:31.074Z,4.15
2019-05-19T19:43:02.815Z,8.55
2019-05-19T19:45:31.430Z,4.50
2019-05-19T19:48:00.114Z,11.00
2019-05-19T19:50:28.806Z,6.10
2019-05-19T19:52:57.414Z,9.08
2019-05-19T19:55:25.969Z,5.00
2019-05-19T19:57:54.730Z,7.35
2019-05-19T20:00:37.776Z,5.45
2019-05-19T20:03:07.114Z,5.95
2019-05-19T20:05:35.747Z,7.30
2019-05-19T20:08:04.874Z,7.90
2019-05-19T20:10:33.398Z,6.67
2019-05-19T20:13:01.968Z,11.97
2019-05-19T20:15:30.527Z,5.08
2019-05-19T20:17:59.120Z,4.17
2019-05-19T20:20:27.747Z,2.08
2019-05-19T20:22:56.404Z,5.03
2019-05-19T20:25:25.007Z,3.50
2019-05-19T20:27:53.637Z,4.40
2019-05-19T20:30:35.186Z,7.95
2019-05-19T20:32:52.667Z,7.10
2019-05-19T20:35:21.159Z,7.33
2019-05-19T20:37:49.858Z,9.10
2019-05-19T20:40:18.516Z,9.20
2019-05-19T20:42:47.099Z,10.03
2019-05-19T20:45:15.737Z,11.00
2019-05-19T20:47:44.331Z,8.13
2019-05-19T20:50:13.065Z,9.53
2019-05-19T20:52:41.790Z,11.73
2019-05-19T20:55:10.549Z,9.88
2019-05-19T20:57:39.040Z,9.43
2019-05-19T21:00:09.181Z,12.15
2019-05-19T21:02:37.862Z,12.55
2019-05-19T21:05:06.698Z,13.13
2019-05-19T21:07:35.201Z,9.00
2019-05-19T21:10:05.374Z,10.85
2019-05-19T21:12:34.011Z,5.62
2019-05-19T21:15:02.568Z,5.25
2019-05-19T21:17:31.210Z,13.62
2019-05-19T21:19:59.700Z,10.32
2019-05-19T21:22:28.327Z,5.78
2019-05-19T21:24:56.966Z,6.00
2019-05-19T21:27:25.542Z,10.58
2019-05-19T21:29:54.213Z,8.63
2019-05-19T21:32:22.738Z,11.68
2019-05-19T21:34:51.238Z,13.03
2019-05-19T21:37:19.905Z,10.95
2019-05-19T21:39:48.560Z,8.00
2019-05-19T21:42:17.023Z,10.08
2019-05-19T21:44:45.623Z,10.18
2019-05-19T21:47:14.271Z,7.55
2019-05-19T21:49:42.903Z,11.53
2019-05-19T21:52:11.505Z,7.83
2019-05-19T21:54:40.074Z,9.63
2019-05-19T21:57:08.803Z,9.78
2019-05-19T21:59:37.469Z,7.72
2019-05-19T22:02:06.574Z,9.30
2019-05-19T22:04:35.152Z,10.82
2019-05-19T22:07:20.602Z,8.30
2019-05-19T22:09:49.316Z,10.95
2019-05-19T22:12:17.957Z,14.07
2019-05-19T22:14:46.683Z,7.22
2019-05-19T22:17:15.175Z,8.53
2019-05-19T22:19:43.672Z,9.13
2019-05-19T22:22:12.344Z,10.72
2019-05-19T22:24:40.973Z,10.05
2019-05-19T22:27:09.537Z,8.58
2019-05-19T22:29:38.137Z,6.58
2019-05-19T22:32:06.769Z,11.63
2019-05-19T22:34:35.404Z,11.33
2019-05-19T22:37:04.018Z,10.75
2019-05-19T22:39:32.501Z,10.75
2019-05-19T22:42:01.176Z,3.90
2019-05-19T22:44:29.828Z,7.08
2019-05-19T22:46:58.390Z,4.25
2019-05-19T22:49:27.019Z,5.75
2019-05-19T22:51:55.607Z,6.12
2019-05-19T22:54:24.105Z,10.20
2019-05-19T22:56:52.734Z,5.67
2019-05-19T22:59:21.401Z,5.20
2019-05-19T23:01:52.117Z,9.08
2019-05-19T23:04:20.384Z,6.15
2019-05-19T23:06:49.010Z,5.45
2019-05-19T23:09:17.753Z,4.75
2019-05-19T23:11:46.343Z,3.92
2019-05-19T23:14:14.901Z,3.75
2019-05-19T23:16:43.528Z,8.80
2019-05-19T23:19:12.197Z,6.28
2019-05-19T23:21:40.688Z,3.42
2019-05-19T23:24:09.248Z,5.20
2019-05-19T23:26:37.937Z,6.40
2019-05-19T23:29:06.569Z,7.05
2019-05-19T23:31:35.202Z,6.47
2019-05-19T23:34:03.800Z,4.30
2019-05-19T23:36:32.362Z,3.60
2019-05-19T23:39:00.853Z,3.75
2019-05-19T23:41:29.533Z,6.25
2019-05-19T23:43:58.170Z,5.08
2019-05-19T23:46:26.660Z,5.17
2019-05-19T23:48:55.178Z,4.90
2019-05-19T23:51:23.807Z,3.40
2019-05-19T23:53:52.439Z,2.95
2019-05-19T23:56:21.121Z,4.47
2019-05-19T23:58:49.617Z,2.52
